sensor_id;sensor_type;location;lat;lon;timestamp;temperature;humidity
45343;DHT22;31077;50.872;4.352;2023-03-16T00:00:14;24.20;30.80
45343;DHT22;31077;50.872;4.352;2023-03-16T00:02:41;24.20;31.00
45343;DHT22;31077;50.872;4.352;2023-03-16T00:05:11;24.10;31.10
45343;DHT22;31077;50.872;4.352;2023-03-16T00:07:38;24.20;31.20
45343;DHT22;31077;50.872;4.352;2023-03-16T00:10:04;24.20;31.10
45343;DHT22;31077;50.872;4.352;2023-03-16T00:12:30;24.20;31.10
45343;DHT22;31077;50.872;4.352;2023-03-16T00:14:59;24.20;31.10
45343;DHT22;31077;50.872;4.352;2023-03-16T00:17:25;24.20;31.20
45343;DHT22;31077;50.872;4.352;2023-03-16T00:19:53;24.20;31.10
45343;DHT22;31077;50.872;4.352;2023-03-16T00:22:24;24.10;31.10
45343;DHT22;31077;50.872;4.352;2023-03-16T00:24:50;24.30;31.50
45343;DHT22;31077;50.872;4.352;2023-03-16T00:27:17;24.20;31.30
45343;DHT22;31077;50.872;4.352;2023-03-16T00:29:47;24.20;31.10
45343;DHT22;31077;50.872;4.352;2023-03-16T00:32:18;24.20;31.10
45343;DHT22;31077;50.872;4.352;2023-03-16T00:34:45;24.20;31.00
45343;DHT22;31077;50.872;4.352;2023-03-16T00:37:14;24.20;31.10
45343;DHT22;31077;50.872;4.352;2023-03-16T00:39:41;24.20;31.10
45343;DHT22;31077;50.872;4.352;2023-03-16T00:42:11;24.20;31.10
45343;DHT22;31077;50.872;4.352;2023-03-16T00:44:40;24.10;31.10
45343;DHT22;31077;50.872;4.352;2023-03-16T00:47:07;24.20;31.10
45343;DHT22;31077;50.872;4.352;2023-03-16T00:49:34;24.20;31.10
45343;DHT22;31077;50.872;4.352;2023-03-16T00:52:01;24.10;31.10
45343;DHT22;31077;50.872;4.352;2023-03-16T00:54:28;24.10;31.10
45343;DHT22;31077;50.872;4.352;2023-03-16T00:56:54;24.10;31.00
45343;DHT22;31077;50.872;4.352;2023-03-16T00:59:20;24.20;31.20
45343;DHT22;31077;50.872;4.352;2023-03-16T01:01:46;24.20;31.10
45343;DHT22;31077;50.872;4.352;2023-03-16T01:04:12;24.20;31.10
45343;DHT22;31077;50.872;4.352;2023-03-16T01:06:39;24.10;31.10
45343;DHT22;31077;50.872;4.352;2023-03-16T01:09:06;24.10;31.10
45343;DHT22;31077;50.872;4.352;2023-03-16T01:11:32;24.40;31.30
45343;DHT22;31077;50.872;4.352;2023-03-16T01:13:59;24.10;31.10
45343;DHT22;31077;50.872;4.352;2023-03-16T01:16:25;24.00;31.00
45343;DHT22;31077;50.872;4.352;2023-03-16T01:18:52;24.10;31.00
45343;DHT22;31077;50.872;4.352;2023-03-16T01:21:19;24.00;31.00
45343;DHT22;31077;50.872;4.352;2023-03-16T01:23:46;23.10;30.60
45343;DHT22;31077;50.872;4.352;2023-03-16T01:26:12;24.20;31.20
45343;DHT22;31077;50.872;4.352;2023-03-16T01:28:40;24.00;31.10
45343;DHT22;31077;50.872;4.352;2023-03-16T01:31:11;24.20;31.20
45343;DHT22;31077;50.872;4.352;2023-03-16T01:33:37;24.10;31.20
45343;DHT22;31077;50.872;4.352;2023-03-16T01:36:07;24.00;31.10
45343;DHT22;31077;50.872;4.352;2023-03-16T01:38:34;24.10;31.30
45343;DHT22;31077;50.872;4.352;2023-03-16T01:41:00;25.80;32.30
45343;DHT22;31077;50.872;4.352;2023-03-16T01:43:27;24.00;31.20
45343;DHT22;31077;50.872;4.352;2023-03-16T01:48:35;24.10;31.30
45343;DHT22;31077;50.872;4.352;2023-03-16T01:53:34;24.10;31.40
45343;DHT22;31077;50.872;4.352;2023-03-16T01:56:02;24.20;31.40
45343;DHT22;31077;50.872;4.352;2023-03-16T01:58:31;24.00;31.30
45343;DHT22;31077;50.872;4.352;2023-03-16T02:01:01;23.60;31.10
45343;DHT22;31077;50.872;4.352;2023-03-16T02:03:28;24.00;31.30
45343;DHT22;31077;50.872;4.352;2023-03-16T02:05:58;23.10;31.00
45343;DHT22;31077;50.872;4.352;2023-03-16T02:08:29;24.10;31.40
45343;DHT22;31077;50.872;4.352;2023-03-16T02:10:56;21.90;30.20
45343;DHT22;31077;50.872;4.352;2023-03-16T02:13:23;24.00;31.40
45343;DHT22;31077;50.872;4.352;2023-03-16T02:15:50;24.00;31.50
45343;DHT22;31077;50.872;4.352;2023-03-16T02:18:18;24.10;31.50
45343;DHT22;31077;50.872;4.352;2023-03-16T02:21:04;24.00;31.50
45343;DHT22;31077;50.872;4.352;2023-03-16T02:23:31;25.70;32.50
45343;DHT22;31077;50.872;4.352;2023-03-16T02:26:46;24.00;31.60
45343;DHT22;31077;50.872;4.352;2023-03-16T02:29:22;24.00;31.50
45343;DHT22;31077;50.872;4.352;2023-03-16T02:31:53;24.00;31.60
45343;DHT22;31077;50.872;4.352;2023-03-16T02:34:20;24.00;31.70
45343;DHT22;31077;50.872;4.352;2023-03-16T02:36:47;24.00;31.70
45343;DHT22;31077;50.872;4.352;2023-03-16T02:39:14;23.90;31.70
45343;DHT22;31077;50.872;4.352;2023-03-16T02:41:40;24.00;31.80
45343;DHT22;31077;50.872;4.352;2023-03-16T02:44:14;24.00;31.80
45343;DHT22;31077;50.872;4.352;2023-03-16T02:46:42;24.00;31.80
45343;DHT22;31077;50.872;4.352;2023-03-16T02:49:16;24.00;31.80
45343;DHT22;31077;50.872;4.352;2023-03-16T02:51:45;24.20;32.00
45343;DHT22;31077;50.872;4.352;2023-03-16T02:54:11;24.00;32.00
45343;DHT22;31077;50.872;4.352;2023-03-16T02:56:37;24.00;32.10
45343;DHT22;31077;50.872;4.352;2023-03-16T02:59:04;24.10;32.10
45343;DHT22;31077;50.872;4.352;2023-03-16T03:01:32;24.10;32.30
45343;DHT22;31077;50.872;4.352;2023-03-16T03:04:00;24.00;32.20
45343;DHT22;31077;50.872;4.352;2023-03-16T03:06:26;25.60;33.10
45343;DHT22;31077;50.872;4.352;2023-03-16T03:08:52;22.50;31.40
45343;DHT22;31077;50.872;4.352;2023-03-16T03:11:18;24.10;32.20
45343;DHT22;31077;50.872;4.352;2023-03-16T03:13:45;24.10;32.20
45343;DHT22;31077;50.872;4.352;2023-03-16T03:16:12;24.00;32.10
45343;DHT22;31077;50.872;4.352;2023-03-16T03:18:38;24.00;32.10
45343;DHT22;31077;50.872;4.352;2023-03-16T03:21:04;24.10;32.20
45343;DHT22;31077;50.872;4.352;2023-03-16T03:23:30;24.00;32.10
45343;DHT22;31077;50.872;4.352;2023-03-16T03:25:57;24.00;32.10
45343;DHT22;31077;50.872;4.352;2023-03-16T03:28:23;23.90;32.60
45343;DHT22;31077;50.872;4.352;2023-03-16T03:30:49;24.10;32.20
45343;DHT22;31077;50.872;4.352;2023-03-16T03:33:16;24.00;32.30
45343;DHT22;31077;50.872;4.352;2023-03-16T03:35:42;24.00;32.10
45343;DHT22;31077;50.872;4.352;2023-03-16T03:38:08;24.10;32.10
45343;DHT22;31077;50.872;4.352;2023-03-16T03:40:36;24.00;32.10
45343;DHT22;31077;50.872;4.352;2023-03-16T03:43:03;24.10;32.20
45343;DHT22;31077;50.872;4.352;2023-03-16T03:45:30;24.40;32.30
45343;DHT22;31077;50.872;4.352;2023-03-16T03:47:56;23.90;32.00
45343;DHT22;31077;50.872;4.352;2023-03-16T03:50:22;23.90;32.10
45343;DHT22;31077;50.872;4.352;2023-03-16T03:52:47;24.10;32.20
45343;DHT22;31077;50.872;4.352;2023-03-16T03:55:13;24.10;32.10
45343;DHT22;31077;50.872;4.352;2023-03-16T03:57:39;24.10;32.00
45343;DHT22;31077;50.872;4.352;2023-03-16T04:00:06;23.90;32.00
45343;DHT22;31077;50.872;4.352;2023-03-16T04:02:34;24.00;31.90
45343;DHT22;31077;50.872;4.352;2023-03-16T04:04:59;24.00;32.00
45343;DHT22;31077;50.872;4.352;2023-03-16T04:07:25;24.10;32.00
45343;DHT22;31077;50.872;4.352;2023-03-16T04:09:51;24.00;31.90
45343;DHT22;31077;50.872;4.352;2023-03-16T04:12:17;23.80;31.80
45343;DHT22;31077;50.872;4.352;2023-03-16T04:14:45;24.10;31.90
45343;DHT22;31077;50.872;4.352;2023-03-16T04:17:11;24.00;31.80
45343;DHT22;31077;50.872;4.352;2023-03-16T04:19:37;24.00;32.00
45343;DHT22;31077;50.872;4.352;2023-03-16T04:22:03;24.00;31.90
45343;DHT22;31077;50.872;4.352;2023-03-16T04:24:29;24.10;31.80
45343;DHT22;31077;50.872;4.352;2023-03-16T04:26:59;24.00;31.80
45343;DHT22;31077;50.872;4.352;2023-03-16T04:29:25;24.00;31.70
45343;DHT22;31077;50.872;4.352;2023-03-16T04:31:52;23.00;31.20
45343;DHT22;31077;50.872;4.352;2023-03-16T04:34:19;24.00;31.70
45343;DHT22;31077;50.872;4.352;2023-03-16T04:36:50;23.90;32.10
45343;DHT22;31077;50.872;4.352;2023-03-16T04:39:17;23.90;31.70
45343;DHT22;31077;50.872;4.352;2023-03-16T04:41:43;24.00;31.90
45343;DHT22;31077;50.872;4.352;2023-03-16T04:44:09;24.00;31.80
45343;DHT22;31077;50.872;4.352;2023-03-16T04:46:35;24.00;31.90
45343;DHT22;31077;50.872;4.352;2023-03-16T04:49:01;24.00;31.90
45343;DHT22;31077;50.872;4.352;2023-03-16T04:51:27;24.00;32.00
45343;DHT22;31077;50.872;4.352;2023-03-16T04:53:56;24.10;32.00
45343;DHT22;31077;50.872;4.352;2023-03-16T04:56:28;24.00;31.70
45343;DHT22;31077;50.872;4.352;2023-03-16T04:58:54;24.00;31.90
45343;DHT22;31077;50.872;4.352;2023-03-16T05:01:21;24.10;31.90
45343;DHT22;31077;50.872;4.352;2023-03-16T05:03:48;24.00;31.90
45343;DHT22;31077;50.872;4.352;2023-03-16T05:06:15;24.10;31.90
45343;DHT22;31077;50.872;4.352;2023-03-16T05:08:40;24.10;31.80
45343;DHT22;31077;50.872;4.352;2023-03-16T05:11:06;23.90;31.70
45343;DHT22;31077;50.872;4.352;2023-03-16T05:13:33;23.90;31.60
45343;DHT22;31077;50.872;4.352;2023-03-16T05:15:59;24.00;31.70
45343;DHT22;31077;50.872;4.352;2023-03-16T05:18:26;24.00;31.70
45343;DHT22;31077;50.872;4.352;2023-03-16T05:20:52;22.40;31.00
45343;DHT22;31077;50.872;4.352;2023-03-16T05:23:21;23.90;32.00
45343;DHT22;31077;50.872;4.352;2023-03-16T05:25:48;24.00;31.90
45343;DHT22;31077;50.872;4.352;2023-03-16T05:28:14;23.90;31.70
45343;DHT22;31077;50.872;4.352;2023-03-16T05:30:41;24.00;31.70
45343;DHT22;31077;50.872;4.352;2023-03-16T05:33:07;24.70;32.10
45343;DHT22;31077;50.872;4.352;2023-03-16T05:35:33;23.90;31.60
45343;DHT22;31077;50.872;4.352;2023-03-16T05:37:59;24.10;31.80
45343;DHT22;31077;50.872;4.352;2023-03-16T05:40:25;24.00;31.70
45343;DHT22;31077;50.872;4.352;2023-03-16T05:42:56;24.10;32.00
45343;DHT22;31077;50.872;4.352;2023-03-16T05:45:22;23.90;31.90
45343;DHT22;31077;50.872;4.352;2023-03-16T05:47:49;24.00;32.10
45343;DHT22;31077;50.872;4.352;2023-03-16T05:50:15;23.90;31.90
45343;DHT22;31077;50.872;4.352;2023-03-16T05:52:42;24.00;32.30
45343;DHT22;31077;50.872;4.352;2023-03-16T05:55:10;24.00;32.10
45343;DHT22;31077;50.872;4.352;2023-03-16T05:57:36;23.90;31.80
45343;DHT22;31077;50.872;4.352;2023-03-16T06:00:04;23.90;31.90
45343;DHT22;31077;50.872;4.352;2023-03-16T06:02:45;23.90;31.70
45343;DHT22;31077;50.872;4.352;2023-03-16T06:05:19;24.00;31.70
45343;DHT22;31077;50.872;4.352;2023-03-16T06:07:50;23.40;31.30
45343;DHT22;31077;50.872;4.352;2023-03-16T06:10:22;24.10;31.70
45343;DHT22;31077;50.872;4.352;2023-03-16T06:12:50;23.90;31.70
45343;DHT22;31077;50.872;4.352;2023-03-16T06:15:16;23.90;31.70
45343;DHT22;31077;50.872;4.352;2023-03-16T06:17:42;24.00;31.60
45343;DHT22;31077;50.872;4.352;2023-03-16T06:20:12;23.90;31.50
45343;DHT22;31077;50.872;4.352;2023-03-16T06:22:39;24.00;31.50
45343;DHT22;31077;50.872;4.352;2023-03-16T06:25:10;23.60;31.40
45343;DHT22;31077;50.872;4.352;2023-03-16T06:27:36;24.00;31.50
45343;DHT22;31077;50.872;4.352;2023-03-16T06:30:03;23.90;31.80
45343;DHT22;31077;50.872;4.352;2023-03-16T06:32:29;23.20;31.30
45343;DHT22;31077;50.872;4.352;2023-03-16T06:34:54;23.90;31.50
45343;DHT22;31077;50.872;4.352;2023-03-16T06:37:20;24.00;31.40
45343;DHT22;31077;50.872;4.352;2023-03-16T06:39:46;23.90;31.70
45343;DHT22;31077;50.872;4.352;2023-03-16T06:42:12;23.90;31.50
45343;DHT22;31077;50.872;4.352;2023-03-16T06:44:38;24.00;31.90
45343;DHT22;31077;50.872;4.352;2023-03-16T06:47:04;24.00;31.60
45343;DHT22;31077;50.872;4.352;2023-03-16T06:49:30;23.90;31.40
45343;DHT22;31077;50.872;4.352;2023-03-16T06:51:55;24.10;31.40
45343;DHT22;31077;50.872;4.352;2023-03-16T06:54:23;23.90;31.20
45343;DHT22;31077;50.872;4.352;2023-03-16T06:56:49;24.00;31.30
45343;DHT22;31077;50.872;4.352;2023-03-16T06:59:15;23.90;31.20
45343;DHT22;31077;50.872;4.352;2023-03-16T07:01:41;23.90;31.20
45343;DHT22;31077;50.872;4.352;2023-03-16T07:04:08;24.00;31.30
45343;DHT22;31077;50.872;4.352;2023-03-16T07:06:34;24.10;32.30
45343;DHT22;31077;50.872;4.352;2023-03-16T07:09:00;23.60;31.40
45343;DHT22;31077;50.872;4.352;2023-03-16T07:11:26;23.90;31.30
45343;DHT22;31077;50.872;4.352;2023-03-16T07:13:52;24.00;31.50
45343;DHT22;31077;50.872;4.352;2023-03-16T07:16:18;24.00;31.40
45343;DHT22;31077;50.872;4.352;2023-03-16T07:18:43;23.90;31.80
45343;DHT22;31077;50.872;4.352;2023-03-16T07:21:10;23.90;31.70
45343;DHT22;31077;50.872;4.352;2023-03-16T07:23:36;24.10;31.70
45343;DHT22;31077;50.872;4.352;2023-03-16T07:26:01;24.00;31.50
45343;DHT22;31077;50.872;4.352;2023-03-16T07:28:28;24.00;31.70
45343;DHT22;31077;50.872;4.352;2023-03-16T07:30:54;24.00;31.20
45343;DHT22;31077;50.872;4.352;2023-03-16T07:33:20;24.00;31.90
45343;DHT22;31077;50.872;4.352;2023-03-16T07:35:46;24.00;31.70
45343;DHT22;31077;50.872;4.352;2023-03-16T07:38:11;24.00;31.20
45343;DHT22;31077;50.872;4.352;2023-03-16T07:40:40;24.00;31.00
45343;DHT22;31077;50.872;4.352;2023-03-16T07:43:06;24.00;31.30
45343;DHT22;31077;50.872;4.352;2023-03-16T07:45:32;24.00;31.20
45343;DHT22;31077;50.872;4.352;2023-03-16T07:47:58;24.00;31.10
45343;DHT22;31077;50.872;4.352;2023-03-16T07:50:24;24.00;31.00
45343;DHT22;31077;50.872;4.352;2023-03-16T07:52:49;24.00;31.50
45343;DHT22;31077;50.872;4.352;2023-03-16T07:55:15;22.50;30.50
45343;DHT22;31077;50.872;4.352;2023-03-16T07:57:41;24.20;31.20
45343;DHT22;31077;50.872;4.352;2023-03-16T08:00:12;24.00;31.00
45343;DHT22;31077;50.872;4.352;2023-03-16T08:02:39;24.20;31.00
45343;DHT22;31077;50.872;4.352;2023-03-16T08:05:04;24.10;30.80
45343;DHT22;31077;50.872;4.352;2023-03-16T08:07:30;24.20;31.20
45343;DHT22;31077;50.872;4.352;2023-03-16T08:09:57;23.40;30.50
45343;DHT22;31077;50.872;4.352;2023-03-16T08:12:22;24.20;30.80
45343;DHT22;31077;50.872;4.352;2023-03-16T08:14:48;24.10;31.20
45343;DHT22;31077;50.872;4.352;2023-03-16T08:17:14;24.10;31.10
45343;DHT22;31077;50.872;4.352;2023-03-16T08:19:40;24.10;31.20
45343;DHT22;31077;50.872;4.352;2023-03-16T08:22:07;24.20;31.00
45343;DHT22;31077;50.872;4.352;2023-03-16T08:24:33;24.20;31.40
45343;DHT22;31077;50.872;4.352;2023-03-16T08:26:59;24.10;31.20
45343;DHT22;31077;50.872;4.352;2023-03-16T08:29:26;24.00;30.80
45343;DHT22;31077;50.872;4.352;2023-03-16T08:31:52;24.20;30.70
45343;DHT22;31077;50.872;4.352;2023-03-16T08:34:21;24.20;30.60
45343;DHT22;31077;50.872;4.352;2023-03-16T08:36:47;24.10;30.40
45343;DHT22;31077;50.872;4.352;2023-03-16T08:39:13;24.00;30.40
45343;DHT22;31077;50.872;4.352;2023-03-16T08:41:41;24.00;30.30
45343;DHT22;31077;50.872;4.352;2023-03-16T08:44:08;24.10;30.50
45343;DHT22;31077;50.872;4.352;2023-03-16T08:46:33;24.10;30.60
45343;DHT22;31077;50.872;4.352;2023-03-16T08:49:00;24.10;30.40
45343;DHT22;31077;50.872;4.352;2023-03-16T08:51:27;24.10;30.30
45343;DHT22;31077;50.872;4.352;2023-03-16T08:53:54;24.20;30.40
45343;DHT22;31077;50.872;4.352;2023-03-16T08:56:20;24.20;30.80
45343;DHT22;31077;50.872;4.352;2023-03-16T08:58:46;24.10;30.40
45343;DHT22;31077;50.872;4.352;2023-03-16T09:01:14;23.60;30.00
45343;DHT22;31077;50.872;4.352;2023-03-16T09:03:40;24.10;30.20
45343;DHT22;31077;50.872;4.352;2023-03-16T09:06:10;22.50;29.60
45343;DHT22;31077;50.872;4.352;2023-03-16T09:08:37;24.10;30.30
45343;DHT22;31077;50.872;4.352;2023-03-16T09:11:08;24.10;30.30
45343;DHT22;31077;50.872;4.352;2023-03-16T09:13:36;24.10;30.40
45343;DHT22;31077;50.872;4.352;2023-03-16T09:16:03;24.10;30.20
45343;DHT22;31077;50.872;4.352;2023-03-16T09:18:30;24.10;30.30
45343;DHT22;31077;50.872;4.352;2023-03-16T09:21:02;24.30;30.20
45343;DHT22;31077;50.872;4.352;2023-03-16T09:23:29;24.30;30.50
45343;DHT22;31077;50.872;4.352;2023-03-16T09:26:00;24.20;30.10
45343;DHT22;31077;50.872;4.352;2023-03-16T09:28:27;24.20;30.70
45343;DHT22;31077;50.872;4.352;2023-03-16T09:30:54;22.40;29.50
45343;DHT22;31077;50.872;4.352;2023-03-16T09:33:21;23.60;29.90
45343;DHT22;31077;50.872;4.352;2023-03-16T09:35:47;22.30;29.60
45343;DHT22;31077;50.872;4.352;2023-03-16T09:38:13;24.20;31.00
45343;DHT22;31077;50.872;4.352;2023-03-16T09:40:39;24.30;30.90
45343;DHT22;31077;50.872;4.352;2023-03-16T09:43:31;24.20;30.80
45343;DHT22;31077;50.872;4.352;2023-03-16T09:46:53;24.10;30.80
45343;DHT22;31077;50.872;4.352;2023-03-16T09:49:00;24.40;31.00
45343;DHT22;31077;50.872;4.352;2023-03-16T09:53:57;24.30;31.10
45343;DHT22;31077;50.872;4.352;2023-03-16T09:56:38;24.30;31.10
45343;DHT22;31077;50.872;4.352;2023-03-16T09:59:12;24.30;31.10
45343;DHT22;31077;50.872;4.352;2023-03-16T10:05:03;24.20;31.10
45343;DHT22;31077;50.872;4.352;2023-03-16T10:12:42;24.20;31.20
45343;DHT22;31077;50.872;4.352;2023-03-16T10:15:16;24.20;31.20
45343;DHT22;31077;50.872;4.352;2023-03-16T10:17:48;24.20;31.20
45343;DHT22;31077;50.872;4.352;2023-03-16T10:20:19;24.20;31.20
45343;DHT22;31077;50.872;4.352;2023-03-16T10:22:47;24.40;31.50
45343;DHT22;31077;50.872;4.352;2023-03-16T10:25:47;24.20;31.40
45343;DHT22;31077;50.872;4.352;2023-03-16T10:28:21;24.20;31.40
45343;DHT22;31077;50.872;4.352;2023-03-16T10:30:50;24.20;31.40
45343;DHT22;31077;50.872;4.352;2023-03-16T10:33:26;24.30;31.50
45343;DHT22;31077;50.872;4.352;2023-03-16T10:36:24;24.40;31.50
45343;DHT22;31077;50.872;4.352;2023-03-16T10:38:56;24.20;31.30
45343;DHT22;31077;50.872;4.352;2023-03-16T10:41:30;24.20;31.40
45343;DHT22;31077;50.872;4.352;2023-03-16T10:43:59;24.20;31.30
45343;DHT22;31077;50.872;4.352;2023-03-16T10:46:37;24.20;31.30
45343;DHT22;31077;50.872;4.352;2023-03-16T10:49:04;24.30;31.40
45343;DHT22;31077;50.872;4.352;2023-03-16T10:51:34;24.20;31.20
45343;DHT22;31077;50.872;4.352;2023-03-16T10:54:14;24.20;31.50
45343;DHT22;31077;50.872;4.352;2023-03-16T10:56:40;24.30;31.50
45343;DHT22;31077;50.872;4.352;2023-03-16T11:01:50;24.40;31.40
45343;DHT22;31077;50.872;4.352;2023-03-16T11:04:18;24.30;31.20
45343;DHT22;31077;50.872;4.352;2023-03-16T11:06:55;22.50;30.30
45343;DHT22;31077;50.872;4.352;2023-03-16T11:09:24;24.30;31.20
45343;DHT22;31077;50.872;4.352;2023-03-16T11:11:51;25.00;31.50
45343;DHT22;31077;50.872;4.352;2023-03-16T11:14:20;24.30;31.60
45343;DHT22;31077;50.872;4.352;2023-03-16T11:17:11;24.30;31.10
45343;DHT22;31077;50.872;4.352;2023-03-16T11:19:53;24.50;31.20
45343;DHT22;31077;50.872;4.352;2023-03-16T11:22:23;24.30;31.10
45343;DHT22;31077;50.872;4.352;2023-03-16T11:27:42;24.30;31.20
45343;DHT22;31077;50.872;4.352;2023-03-16T11:30:23;24.70;31.20
45343;DHT22;31077;50.872;4.352;2023-03-16T11:32:51;24.40;31.10
45343;DHT22;31077;50.872;4.352;2023-03-16T11:35:26;24.30;31.10
45343;DHT22;31077;50.872;4.352;2023-03-16T11:37:59;24.40;31.00
45343;DHT22;31077;50.872;4.352;2023-03-16T11:48:41;24.40;31.00
45343;DHT22;31077;50.872;4.352;2023-03-16T11:57:36;24.30;30.60
45343;DHT22;31077;50.872;4.352;2023-03-16T12:05:55;24.30;30.70
45343;DHT22;31077;50.872;4.352;2023-03-16T12:11:10;24.40;30.60
45343;DHT22;31077;50.872;4.352;2023-03-16T12:16:40;24.40;30.50
45343;DHT22;31077;50.872;4.352;2023-03-16T12:19:24;24.40;30.60
45343;DHT22;31077;50.872;4.352;2023-03-16T12:24:50;24.50;30.40
45343;DHT22;31077;50.872;4.352;2023-03-16T12:27:29;23.10;29.90
45343;DHT22;31077;50.872;4.352;2023-03-16T12:35:39;24.70;30.50
45343;DHT22;31077;50.872;4.352;2023-03-16T12:43:54;24.70;30.40
45343;DHT22;31077;50.872;4.352;2023-03-16T12:49:08;24.80;30.50
45343;DHT22;31077;50.872;4.352;2023-03-16T12:51:36;24.70;30.40
45343;DHT22;31077;50.872;4.352;2023-03-16T12:54:02;24.80;30.40
45343;DHT22;31077;50.872;4.352;2023-03-16T12:56:32;25.10;30.50
45343;DHT22;31077;50.872;4.352;2023-03-16T12:59:01;24.80;30.40
45343;DHT22;31077;50.872;4.352;2023-03-16T13:01:30;25.00;30.50
45343;DHT22;31077;50.872;4.352;2023-03-16T13:04:16;24.80;30.40
45343;DHT22;31077;50.872;4.352;2023-03-16T13:06:46;24.80;30.20
45343;DHT22;31077;50.872;4.352;2023-03-16T13:09:24;24.90;30.30
45343;DHT22;31077;50.872;4.352;2023-03-16T13:11:52;23.70;29.90
45343;DHT22;31077;50.872;4.352;2023-03-16T13:14:42;23.10;29.60
45343;DHT22;31077;50.872;4.352;2023-03-16T13:19:40;25.00;30.30
45343;DHT22;31077;50.872;4.352;2023-03-16T13:25:23;25.00;30.20
45343;DHT22;31077;50.872;4.352;2023-03-16T13:28:01;25.00;30.20
45343;DHT22;31077;50.872;4.352;2023-03-16T13:30:32;25.00;30.20
45343;DHT22;31077;50.872;4.352;2023-03-16T13:33:01;25.00;30.10
45343;DHT22;31077;50.872;4.352;2023-03-16T13:35:31;25.00;30.20
45343;DHT22;31077;50.872;4.352;2023-03-16T13:38:04;24.90;30.10
45343;DHT22;31077;50.872;4.352;2023-03-16T13:40:31;25.10;30.20
45343;DHT22;31077;50.872;4.352;2023-03-16T13:42:57;25.10;30.10
45343;DHT22;31077;50.872;4.352;2023-03-16T13:45:36;25.20;30.10
45343;DHT22;31077;50.872;4.352;2023-03-16T13:48:03;25.20;30.10
45343;DHT22;31077;50.872;4.352;2023-03-16T13:50:34;25.10;30.00
45343;DHT22;31077;50.872;4.352;2023-03-16T13:53:16;25.30;30.40
45343;DHT22;31077;50.872;4.352;2023-03-16T13:55:45;25.20;30.20
45343;DHT22;31077;50.872;4.352;2023-03-16T13:58:29;25.30;30.40
45343;DHT22;31077;50.872;4.352;2023-03-16T14:00:58;25.20;30.30
45343;DHT22;31077;50.872;4.352;2023-03-16T14:03:36;25.20;30.20
45343;DHT22;31077;50.872;4.352;2023-03-16T14:06:04;25.30;30.20
45343;DHT22;31077;50.872;4.352;2023-03-16T14:08:30;25.40;30.30
45343;DHT22;31077;50.872;4.352;2023-03-16T14:10:57;25.30;30.20
45343;DHT22;31077;50.872;4.352;2023-03-16T14:16:09;25.40;30.20
45343;DHT22;31077;50.872;4.352;2023-03-16T14:18:40;25.50;30.10
45343;DHT22;31077;50.872;4.352;2023-03-16T14:21:08;25.40;30.00
45343;DHT22;31077;50.872;4.352;2023-03-16T14:23:39;25.70;30.20
45343;DHT22;31077;50.872;4.352;2023-03-16T14:26:11;25.50;30.00
45343;DHT22;31077;50.872;4.352;2023-03-16T14:28:38;25.40;30.00
45343;DHT22;31077;50.872;4.352;2023-03-16T14:31:18;23.50;29.10
45343;DHT22;31077;50.872;4.352;2023-03-16T14:33:45;25.40;30.00
45343;DHT22;31077;50.872;4.352;2023-03-16T14:36:16;25.40;30.10
45343;DHT22;31077;50.872;4.352;2023-03-16T14:38:46;25.40;30.00
45343;DHT22;31077;50.872;4.352;2023-03-16T14:41:26;25.30;29.90
45343;DHT22;31077;50.872;4.352;2023-03-16T14:43:59;25.30;29.90
45343;DHT22;31077;50.872;4.352;2023-03-16T14:46:36;25.30;29.80
45343;DHT22;31077;50.872;4.352;2023-03-16T14:49:08;25.30;29.70
45343;DHT22;31077;50.872;4.352;2023-03-16T14:51:39;25.40;29.70
45343;DHT22;31077;50.872;4.352;2023-03-16T14:54:16;25.40;29.70
45343;DHT22;31077;50.872;4.352;2023-03-16T14:56:46;25.50;29.70
45343;DHT22;31077;50.872;4.352;2023-03-16T14:59:12;25.50;29.60
45343;DHT22;31077;50.872;4.352;2023-03-16T15:01:38;25.60;29.60
45343;DHT22;31077;50.872;4.352;2023-03-16T15:04:04;25.50;29.60
45343;DHT22;31077;50.872;4.352;2023-03-16T15:06:32;25.60;29.60
45343;DHT22;31077;50.872;4.352;2023-03-16T15:08:59;25.50;29.50
45343;DHT22;31077;50.872;4.352;2023-03-16T15:11:25;25.50;29.50
45343;DHT22;31077;50.872;4.352;2023-03-16T15:13:53;25.60;29.60
45343;DHT22;31077;50.872;4.352;2023-03-16T15:16:29;25.50;29.50
45343;DHT22;31077;50.872;4.352;2023-03-16T15:18:55;25.60;29.50
45343;DHT22;31077;50.872;4.352;2023-03-16T15:21:22;25.50;29.50
45343;DHT22;31077;50.872;4.352;2023-03-16T15:23:54;26.90;30.10
45343;DHT22;31077;50.872;4.352;2023-03-16T15:26:24;25.60;29.30
45343;DHT22;31077;50.872;4.352;2023-03-16T15:28:52;25.80;29.40
45343;DHT22;31077;50.872;4.352;2023-03-16T15:31:18;25.80;29.70
45343;DHT22;31077;50.872;4.352;2023-03-16T15:33:44;23.80;28.30
45343;DHT22;31077;50.872;4.352;2023-03-16T15:36:16;25.80;29.20
45343;DHT22;31077;50.872;4.352;2023-03-16T15:38:45;25.70;29.00
45343;DHT22;31077;50.872;4.352;2023-03-16T15:41:12;25.80;29.00
45343;DHT22;31077;50.872;4.352;2023-03-16T15:43:38;25.70;28.90
45343;DHT22;31077;50.872;4.352;2023-03-16T15:46:04;25.70;28.90
45343;DHT22;31077;50.872;4.352;2023-03-16T15:48:31;25.70;28.70
45343;DHT22;31077;50.872;4.352;2023-03-16T15:51:06;25.60;28.70
45343;DHT22;31077;50.872;4.352;2023-03-16T15:53:39;25.80;28.80
45343;DHT22;31077;50.872;4.352;2023-03-16T15:56:09;25.20;28.90
45343;DHT22;31077;50.872;4.352;2023-03-16T15:58:38;25.60;28.70
45343;DHT22;31077;50.872;4.352;2023-03-16T16:01:05;25.60;28.60
45343;DHT22;31077;50.872;4.352;2023-03-16T16:03:33;25.60;28.70
45343;DHT22;31077;50.872;4.352;2023-03-16T16:06:00;25.00;28.20
45343;DHT22;31077;50.872;4.352;2023-03-16T16:08:26;25.70;28.60
45343;DHT22;31077;50.872;4.352;2023-03-16T16:10:52;25.80;28.60
45343;DHT22;31077;50.872;4.352;2023-03-16T16:13:40;25.90;28.60
45343;DHT22;31077;50.872;4.352;2023-03-16T16:16:07;25.80;28.50
45343;DHT22;31077;50.872;4.352;2023-03-16T16:18:34;25.80;28.40
45343;DHT22;31077;50.872;4.352;2023-03-16T16:21:03;25.90;28.40
45343;DHT22;31077;50.872;4.352;2023-03-16T16:23:30;25.80;28.20
45343;DHT22;31077;50.872;4.352;2023-03-16T16:26:08;25.60;28.00
45343;DHT22;31077;50.872;4.352;2023-03-16T16:28:37;26.40;28.20
45343;DHT22;31077;50.872;4.352;2023-03-16T16:31:10;26.70;28.10
45343;DHT22;31077;50.872;4.352;2023-03-16T16:33:37;26.80;27.90
45343;DHT22;31077;50.872;4.352;2023-03-16T16:36:05;26.80;27.90
45343;DHT22;31077;50.872;4.352;2023-03-16T16:38:32;26.70;27.80
45343;DHT22;31077;50.872;4.352;2023-03-16T16:41:00;26.60;27.90
45343;DHT22;31077;50.872;4.352;2023-03-16T16:48:39;26.20;28.20
45343;DHT22;31077;50.872;4.352;2023-03-16T16:51:23;26.00;28.20
45343;DHT22;31077;50.872;4.352;2023-03-16T16:53:51;25.90;28.20
45343;DHT22;31077;50.872;4.352;2023-03-16T16:56:25;24.80;27.80
45343;DHT22;31077;50.872;4.352;2023-03-16T16:58:52;25.80;28.50